Time;durP1;ratioP1;P1;durP2;ratioP2;P2;SDS_P1;SDS_P2;PMS_P1;PMS_P2;Temp;Humidity;BMP_temperature;BMP_pressure;BME280_temperature;BME280_humidity;BME280_pressure;Samples;Min_cycle;Max_cycle;Signal;HPM_P1;HPM_P2
2023/04/04 00:02:00;;;;;;;10.63;3.80;;;0.80;99.90;;;;;;5138036;28;20459;-69
2023/04/04 00:04:27;;;;;;;8.63;4.00;;;0.80;99.90;;;;;;5138708;28;20451;-68
2023/04/04 00:06:54;;;;;;;8.97;3.40;;;0.80;99.90;;;;;;5138830;28;20462;-68
2023/04/04 00:09:21;;;;;;;5.50;3.30;;;0.70;99.90;;;;;;5137642;28;20542;-68
2023/04/04 00:11:49;;;;;;;7.63;4.20;;;0.70;99.90;;;;;;5138004;28;20812;-69
2023/04/04 00:14:16;;;;;;;4.07;3.17;;;0.70;99.90;;;;;;5137722;28;20466;-68
2023/04/04 00:16:43;;;;;;;6.73;3.70;;;0.70;99.90;;;;;;5138366;27;20454;-69
2023/04/04 00:19:16;;;;;;;7.73;3.90;;;0.70;99.90;;;;;;5142499;27;20475;-69
2023/04/04 00:21:43;;;;;;;8.90;3.97;;;0.70;99.90;;;;;;5143076;27;20479;-69
2023/04/04 00:24:10;;;;;;;4.50;3.43;;;0.70;99.90;;;;;;5142602;27;20538;-69
2023/04/04 00:26:37;;;;;;;7.50;3.60;;;0.60;99.90;;;;;;5143740;27;20451;-69
2023/04/04 00:29:05;;;;;;;6.80;4.00;;;0.60;99.90;;;;;;5142990;27;20995;-69
2023/04/04 00:31:32;;;;;;;5.70;3.30;;;0.60;99.90;;;;;;5143120;27;20451;-68
2023/04/04 00:33:59;;;;;;;7.80;4.00;;;0.60;99.90;;;;;;5143834;27;20550;-68
2023/04/04 00:36:26;;;;;;;4.73;3.50;;;0.60;99.90;;;;;;5142967;27;20460;-68
2023/04/04 00:38:53;;;;;;;5.23;4.10;;;0.50;99.90;;;;;;5142874;27;20566;-70
2023/04/04 00:41:20;;;;;;;8.53;3.17;;;0.50;99.90;;;;;;5142765;27;20535;-69
2023/04/04 00:43:47;;;;;;;5.20;3.77;;;0.40;99.90;;;;;;5142709;27;20451;-69
2023/04/04 00:46:17;;;;;;;6.77;3.37;;;0.40;99.90;;;;;;5142518;27;20535;-70
2023/04/04 00:48:44;;;;;;;7.10;2.63;;;0.40;99.90;;;;;;5142439;27;20432;-69
2023/04/04 00:51:11;;;;;;;7.20;3.50;;;0.30;99.90;;;;;;5142094;27;20451;-70
2023/04/04 00:53:38;;;;;;;4.13;3.20;;;0.30;99.90;;;;;;5142242;27;20538;-69
2023/04/04 00:56:06;;;;;;;6.10;3.10;;;0.30;99.90;;;;;;5142222;27;20487;-69
2023/04/04 00:58:33;;;;;;;6.03;2.83;;;0.30;99.90;;;;;;5141857;27;20489;-69
2023/04/04 01:01:01;;;;;;;6.70;3.70;;;0.30;99.90;;;;;;5142075;27;20530;-69
2023/04/04 01:03:29;;;;;;;11.80;4.03;;;0.30;99.90;;;;;;5141737;27;20538;-69
2023/04/04 01:05:56;;;;;;;6.93;2.93;;;0.30;99.90;;;;;;5142037;27;20491;-69
2023/04/04 01:08:26;;;;;;;3.63;3.23;;;0.30;99.90;;;;;;5141775;27;20478;-69
2023/04/04 01:10:53;;;;;;;11.70;3.90;;;0.30;99.90;;;;;;5141750;27;20768;-69
2023/04/04 01:13:20;;;;;;;6.73;2.50;;;0.30;99.90;;;;;;5141690;27;20938;-68
2023/04/04 01:15:48;;;;;;;3.90;2.53;;;0.20;99.90;;;;;;5142124;27;20927;-69
2023/04/04 01:18:19;;;;;;;3.37;2.70;;;0.30;99.90;;;;;;5141868;27;20512;-68
2023/04/04 01:20:54;;;;;;;11.57;3.40;;;0.30;99.90;;;;;;5142426;27;20440;-70
2023/04/04 01:23:23;;;;;;;4.30;3.30;;;0.20;99.90;;;;;;5141396;27;20467;-69
2023/04/04 01:26:01;;;;;;;7.53;3.17;;;0.20;99.90;;;;;;5141910;27;20463;-69
2023/04/04 01:28:28;;;;;;;7.33;3.07;;;0.20;99.90;;;;;;5140386;27;20442;-69
2023/04/04 01:30:57;;;;;;;6.10;3.30;;;0.20;99.90;;;;;;5140193;27;20451;-68
2023/04/04 01:33:28;;;;;;;8.10;3.13;;;0.20;99.90;;;;;;5141016;27;20837;-69
2023/04/04 01:36:06;;;;;;;4.70;2.83;;;0.20;99.90;;;;;;5141728;27;20527;-69
2023/04/04 01:38:41;;;;;;;6.40;3.67;;;0.20;99.90;;;;;;5141152;27;20440;-69
2023/04/04 01:41:12;;;;;;;4.33;3.10;;;0.20;99.90;;;;;;5141086;27;20866;-69
2023/04/04 01:43:38;;;;;;;8.63;3.20;;;0.20;99.90;;;;;;5140994;27;20450;-69
2023/04/04 01:46:06;;;;;;;4.90;3.60;;;0.20;99.90;;;;;;5140928;27;20622;-70
2023/04/04 01:48:33;;;;;;;4.17;3.13;;;0.20;99.90;;;;;;5141055;27;20542;-68
2023/04/04 01:51:01;;;;;;;4.10;3.03;;;0.20;99.90;;;;;;5140672;27;20483;-69
2023/04/04 01:53:28;;;;;;;6.17;2.70;;;0.30;99.90;;;;;;5140590;27;20462;-68
2023/04/04 01:55:55;;;;;;;4.13;3.33;;;0.30;99.90;;;;;;5139639;27;20482;-68
2023/04/04 01:58:23;;;;;;;3.53;2.90;;;0.30;99.90;;;;;;5140568;27;20802;-67
2023/04/04 02:00:50;;;;;;;5.67;3.30;;;0.40;99.90;;;;;;5141204;27;20554;-69
2023/04/04 02:03:17;;;;;;;4.10;3.40;;;0.40;99.90;;;;;;5140546;27;20455;-68
2023/04/04 02:05:45;;;;;;;8.37;3.43;;;0.40;99.90;;;;;;5140569;27;20451;-68
2023/04/04 02:08:12;;;;;;;4.40;3.43;;;0.40;99.90;;;;;;5140524;27;20479;-68
2023/04/04 02:10:39;;;;;;;4.23;2.90;;;0.40;99.90;;;;;;5140567;27;20448;-69
2023/04/04 02:13:06;;;;;;;7.50;3.17;;;0.40;99.90;;;;;;5139998;27;20542;-69
2023/04/04 02:15:34;;;;;;;4.60;3.70;;;0.40;99.90;;;;;;5140251;27;20768;-69
2023/04/04 02:18:02;;;;;;;4.63;2.63;;;0.40;99.90;;;;;;5140339;27;20448;-68
2023/04/04 02:20:29;;;;;;;8.27;3.60;;;0.40;99.90;;;;;;5140474;27;20471;-68
2023/04/04 02:22:56;;;;;;;7.23;3.30;;;0.30;99.90;;;;;;5140358;27;20516;-69
2023/04/04 02:25:25;;;;;;;6.10;3.13;;;0.30;99.90;;;;;;5139551;27;20509;-69
2023/04/04 02:27:52;;;;;;;6.10;3.30;;;0.20;99.90;;;;;;5139081;27;20523;-70
2023/04/04 02:30:19;;;;;;;18.63;10.90;;;0.20;99.90;;;;;;5139719;27;20607;-69
2023/04/04 02:32:47;;;;;;;7.70;4.23;;;0.20;99.90;;;;;;5139671;27;20459;-69
2023/04/04 02:35:15;;;;;;;5.93;3.80;;;0.20;99.90;;;;;;5140063;27;20456;-69
2023/04/04 02:37:44;;;;;;;7.57;3.43;;;0.20;99.90;;;;;;5139621;27;20491;-69
2023/04/04 02:40:12;;;;;;;4.83;3.23;;;0.20;99.90;;;;;;5139410;27;20476;-69
2023/04/04 02:42:42;;;;;;;7.13;3.37;;;0.10;99.90;;;;;;5140430;27;20505;-69
2023/04/04 02:45:10;;;;;;;6.70;2.87;;;0.10;99.90;;;;;;5141264;27;20764;-69
2023/04/04 02:47:37;;;;;;;6.70;3.73;;;0.00;99.90;;;;;;5142959;27;20455;-69
2023/04/04 02:50:07;;;;;;;6.43;3.87;;;0.00;99.90;;;;;;5141443;27;20939;-69
2023/04/04 02:52:34;;;;;;;9.10;3.80;;;0.00;99.90;;;;;;5139636;27;20452;-69
2023/04/04 02:55:01;;;;;;;6.00;3.33;;;-0.10;99.90;;;;;;5139867;27;20471;-69
2023/04/04 02:57:28;;;;;;;7.27;4.23;;;-0.10;99.90;;;;;;5140280;27;20466;-69
2023/04/04 02:59:55;;;;;;;4.70;3.40;;;-0.10;99.90;;;;;;5139826;27;20511;-69
2023/04/04 03:02:24;;;;;;;5.87;2.83;;;-0.10;99.90;;;;;;5140109;27;20452;-70
2023/04/04 03:04:51;;;;;;;4.73;2.70;;;-0.10;99.90;;;;;;5139709;27;20451;-69
2023/04/04 03:07:19;;;;;;;7.17;4.20;;;-0.20;99.90;;;;;;5139532;27;20456;-69
2023/04/04 03:09:46;;;;;;;10.43;3.40;;;-0.20;99.90;;;;;;5139069;27;20933;-69
2023/04/04 03:12:13;;;;;;;7.10;3.33;;;-0.30;99.90;;;;;;5138870;27;20790;-69
2023/04/04 03:14:40;;;;;;;4.70;3.37;;;-0.30;99.90;;;;;;5138658;27;20462;-69
2023/04/04 03:17:08;;;;;;;6.20;2.50;;;-0.30;99.90;;;;;;5139082;27;20436;-69
2023/04/04 03:19:35;;;;;;;3.87;3.00;;;-0.40;99.90;;;;;;5139076;27;20529;-68
2023/04/04 03:22:02;;;;;;;7.23;3.33;;;-0.40;99.90;;;;;;5138732;27;20968;-69
2023/04/04 03:24:30;;;;;;;4.03;3.23;;;-0.40;99.90;;;;;;5138376;27;20477;-69
2023/04/04 03:26:57;;;;;;;7.17;3.47;;;-0.40;99.90;;;;;;5139346;27;20542;-69
2023/04/04 03:29:24;;;;;;;3.80;2.60;;;-0.40;99.90;;;;;;5138516;27;20475;-68
2023/04/04 03:31:50;;;;;;;6.43;3.77;;;-0.50;99.90;;;;;;5138934;27;20542;-69
2023/04/04 03:34:17;;;;;;;3.90;3.00;;;-0.50;99.90;;;;;;5138624;27;20459;-69
2023/04/04 03:36:45;;;;;;;5.73;3.70;;;-0.40;99.90;;;;;;5138614;27;20506;-69
2023/04/04 03:39:12;;;;;;;6.83;3.53;;;-0.40;99.90;;;;;;5136803;27;20455;-69
2023/04/04 03:41:40;;;;;;;9.70;4.30;;;-0.50;99.90;;;;;;5136178;27;20515;-70
2023/04/04 03:44:07;;;;;;;7.07;3.20;;;-0.50;99.90;;;;;;5136589;27;20466;-69
2023/04/04 03:46:34;;;;;;;4.97;3.20;;;-0.60;99.90;;;;;;5137263;27;20491;-69
2023/04/04 03:49:01;;;;;;;4.30;2.80;;;-0.60;99.90;;;;;;5137591;27;20461;-70
2023/04/04 03:51:28;;;;;;;5.53;3.20;;;-0.60;99.90;;;;;;5139359;27;20526;-68
2023/04/04 03:53:55;;;;;;;11.00;3.10;;;-0.60;99.90;;;;;;5139059;27;20915;-68
2023/04/04 03:56:22;;;;;;;3.50;2.60;;;-0.60;99.90;;;;;;5137424;27;20759;-69
2023/04/04 03:58:50;;;;;;;3.83;2.47;;;-0.60;99.90;;;;;;5136736;28;20889;-69
2023/04/04 04:01:17;;;;;;;5.30;4.10;;;-0.60;99.90;;;;;;5137259;28;20504;-69
2023/04/04 04:03:44;;;;;;;4.27;3.37;;;-0.60;99.90;;;;;;5137767;28;20744;-69
2023/04/04 04:06:11;;;;;;;5.80;3.20;;;-0.70;99.90;;;;;;5137442;28;20471;-69
2023/04/04 04:08:38;;;;;;;9.40;3.90;;;-0.70;99.90;;;;;;5138575;28;20473;-69
2023/04/04 04:11:05;;;;;;;5.73;3.30;;;-0.70;99.90;;;;;;5137662;28;20443;-70
2023/04/04 04:13:32;;;;;;;5.70;4.10;;;-0.70;99.90;;;;;;5137509;28;20579;-69
2023/04/04 04:16:01;;;;;;;6.33;4.30;;;-0.80;99.90;;;;;;5137611;28;20516;-69
2023/04/04 04:18:27;;;;;;;10.97;3.70;;;-0.80;99.90;;;;;;5136927;28;20487;-68
2023/04/04 04:20:58;;;;;;;7.30;3.03;;;-0.80;99.90;;;;;;5137260;28;20503;-69
2023/04/04 04:23:25;;;;;;;8.27;3.47;;;-0.80;99.90;;;;;;5137358;28;20494;-69
2023/04/04 04:25:51;;;;;;;6.47;3.07;;;-0.80;99.90;;;;;;5138102;28;20937;-69
2023/04/04 04:28:18;;;;;;;5.97;3.07;;;-0.70;99.90;;;;;;5137948;28;20542;-69
2023/04/04 04:30:46;;;;;;;5.97;3.10;;;-0.80;99.90;;;;;;5137604;28;20447;-69
2023/04/04 04:33:14;;;;;;;7.30;3.80;;;-0.80;99.90;;;;;;5137697;28;20466;-69
2023/04/04 04:35:41;;;;;;;12.00;6.20;;;-0.80;99.90;;;;;;5137634;28;20459;-69
2023/04/04 04:38:08;;;;;;;7.77;4.73;;;-0.80;99.90;;;;;;5137725;28;20468;-69
2023/04/04 04:40:36;;;;;;;9.10;3.53;;;-0.80;99.90;;;;;;5137050;28;20476;-69
2023/04/04 04:43:03;;;;;;;6.43;3.00;;;-0.80;99.90;;;;;;5137287;28;20462;-70
2023/04/04 04:45:30;;;;;;;7.30;3.97;;;-0.80;99.90;;;;;;5137044;28;20543;-68
2023/04/04 04:47:57;;;;;;;5.97;3.30;;;-0.90;99.90;;;;;;5136757;28;20485;-69
2023/04/04 04:50:25;;;;;;;7.00;3.97;;;-0.90;99.90;;;;;;5136898;28;20451;-69
2023/04/04 04:52:52;;;;;;;5.97;3.10;;;-0.90;99.90;;;;;;5137107;28;20463;-69
2023/04/04 04:55:19;;;;;;;10.07;4.23;;;-0.90;99.90;;;;;;5136895;28;20546;-68
2023/04/04 04:57:47;;;;;;;13.83;7.67;;;-0.90;99.90;;;;;;5136119;28;20547;-69
2023/04/04 05:00:15;;;;;;;49.77;23.20;;;-0.90;99.90;;;;;;5136431;28;20459;-69
2023/04/04 05:02:42;;;;;;;5.50;4.33;;;-0.80;99.90;;;;;;5136271;27;20514;-69
2023/04/04 05:05:09;;;;;;;5.40;3.43;;;-0.90;99.90;;;;;;5139511;27;20486;-69
2023/04/04 05:07:38;;;;;;;5.20;3.53;;;-0.90;99.90;;;;;;5140554;27;20538;-70
2023/04/04 05:10:05;;;;;;;6.10;3.87;;;-0.90;99.90;;;;;;5140553;27;20837;-68
2023/04/04 05:12:32;;;;;;;7.63;3.73;;;-0.90;99.90;;;;;;5140453;27;20451;-68
2023/04/04 05:14:59;;;;;;;5.73;3.87;;;-0.80;99.90;;;;;;5140369;27;20462;-69
2023/04/04 05:17:25;;;;;;;7.67;4.27;;;-0.80;99.90;;;;;;5140354;27;20924;-69
2023/04/04 05:19:52;;;;;;;4.60;3.70;;;-0.80;99.90;;;;;;5140386;27;20543;-70
2023/04/04 05:22:19;;;;;;;7.00;4.40;;;-0.70;99.90;;;;;;5140513;27;20477;-69
2023/04/04 05:24:47;;;;;;;4.37;3.20;;;-0.60;99.90;;;;;;5141080;27;20451;-69
2023/04/04 05:27:15;;;;;;;8.50;4.00;;;-0.60;99.90;;;;;;5140536;27;20447;-68
2023/04/04 05:29:41;;;;;;;8.90;4.00;;;-0.60;99.90;;;;;;5140193;27;20459;-69
2023/04/04 05:32:08;;;;;;;6.40;3.70;;;-0.60;99.90;;;;;;5140045;27;20539;-69
2023/04/04 05:34:35;;;;;;;6.63;4.13;;;-0.60;99.90;;;;;;5140068;27;20451;-70
2023/04/04 05:37:02;;;;;;;10.43;4.10;;;-0.50;99.90;;;;;;5140550;27;20523;-70
2023/04/04 05:39:29;;;;;;;7.20;4.30;;;-0.50;99.90;;;;;;5139980;27;20495;-70
2023/04/04 05:41:58;;;;;;;10.53;4.27;;;-0.50;99.90;;;;;;5139793;27;20479;-69
2023/04/04 05:44:25;;;;;;;12.00;5.23;;;-0.50;99.90;;;;;;5140057;27;20748;-69
2023/04/04 05:46:52;;;;;;;8.83;4.37;;;-0.50;99.90;;;;;;5140580;27;20942;-69
2023/04/04 05:49:19;;;;;;;8.40;4.70;;;-0.50;99.90;;;;;;5140308;27;20644;-69
2023/04/04 05:51:46;;;;;;;8.30;4.97;;;-0.40;99.90;;;;;;5140950;27;20542;-69
2023/04/04 05:54:13;;;;;;;8.27;4.47;;;-0.40;99.90;;;;;;5139893;27;20483;-68
2023/04/04 05:56:39;;;;;;;11.70;5.30;;;-0.20;99.90;;;;;;5139529;27;20538;-69
2023/04/04 05:59:08;;;;;;;7.43;4.97;;;-0.40;99.90;;;;;;5139615;27;20579;-70
2023/04/04 06:01:35;;;;;;;11.70;6.40;;;-0.30;99.90;;;;;;5139404;27;20574;-68
2023/04/04 06:04:01;;;;;;;13.43;5.17;;;-0.20;99.90;;;;;;5140268;27;20534;-69
2023/04/04 06:06:28;;;;;;;11.03;5.30;;;-0.20;99.90;;;;;;5139694;27;20547;-71
2023/04/04 06:08:55;;;;;;;8.87;5.43;;;-0.10;99.90;;;;;;5139654;27;20483;-71
2023/04/04 06:11:22;;;;;;;8.00;4.50;;;0.00;99.90;;;;;;5138512;27;20466;-70
2023/04/04 06:13:49;;;;;;;6.93;5.53;;;0.10;99.90;;;;;;5138594;27;20467;-70
2023/04/04 06:16:17;;;;;;;9.47;4.87;;;0.10;99.90;;;;;;5138526;27;20487;-70
2023/04/04 06:18:44;;;;;;;9.10;6.00;;;0.10;99.90;;;;;;5139099;27;20521;-70
2023/04/04 06:21:12;;;;;;;11.60;4.90;;;0.20;99.90;;;;;;5138664;27;20562;-71
2023/04/04 06:23:39;;;;;;;6.40;5.20;;;0.30;99.90;;;;;;5138307;27;20844;-70
2023/04/04 06:26:07;;;;;;;9.40;4.30;;;0.30;99.90;;;;;;5138453;27;20452;-70
2023/04/04 06:28:36;;;;;;;8.27;4.63;;;0.30;99.90;;;;;;5138691;27;20451;-70
2023/04/04 06:31:05;;;;;;;11.80;4.80;;;0.40;99.90;;;;;;5138273;27;20451;-70
2023/04/04 06:33:34;;;;;;;8.17;5.20;;;0.30;99.90;;;;;;5138762;27;20538;-71
2023/04/04 06:36:01;;;;;;;11.60;5.20;;;0.40;99.90;;;;;;5138360;27;20455;-70
2023/04/04 06:38:29;;;;;;;10.00;5.63;;;0.40;99.90;;;;;;5138288;27;20451;-70
2023/04/04 06:40:56;;;;;;;9.07;5.17;;;0.40;99.90;;;;;;5138239;27;20563;-70
2023/04/04 06:43:23;;;;;;;8.23;4.67;;;0.50;99.90;;;;;;5138113;27;20458;-71
2023/04/04 06:45:51;;;;;;;7.90;4.40;;;0.50;99.90;;;;;;5137977;27;20487;-70
2023/04/04 06:48:17;;;;;;;10.20;5.03;;;0.60;99.90;;;;;;5137490;27;20451;-71
2023/04/04 06:50:46;;;;;;;10.70;4.77;;;0.60;99.90;;;;;;5137571;27;20494;-69
2023/04/04 06:53:13;;;;;;;11.20;4.53;;;0.60;99.90;;;;;;5137598;27;20487;-71
2023/04/04 06:55:40;;;;;;;5.53;4.27;;;0.70;99.90;;;;;;5137896;27;20498;-71
2023/04/04 06:58:07;;;;;;;7.50;4.37;;;0.70;99.90;;;;;;5137336;27;20479;-70
2023/04/04 07:00:34;;;;;;;7.30;4.50;;;0.90;99.90;;;;;;5137582;27;20605;-70
2023/04/04 07:03:01;;;;;;;7.10;4.17;;;1.00;99.90;;;;;;5137747;27;20825;-70
2023/04/04 07:05:28;;;;;;;9.23;3.90;;;1.00;99.90;;;;;;5137433;27;20490;-70
2023/04/04 07:07:56;;;;;;;13.50;4.87;;;1.10;99.90;;;;;;5137684;27;20494;-70
2023/04/04 07:10:25;;;;;;;4.70;3.30;;;1.10;99.90;;;;;;5137888;27;20832;-71
2023/04/04 07:12:51;;;;;;;12.17;4.40;;;1.20;99.90;;;;;;5138100;27;20491;-72
2023/04/04 07:15:18;;;;;;;6.00;4.03;;;1.30;99.90;;;;;;5137606;27;20452;-71
2023/04/04 07:17:45;;;;;;;6.33;4.30;;;1.30;99.90;;;;;;5137792;27;20463;-70
2023/04/04 07:20:12;;;;;;;5.27;3.63;;;1.40;99.90;;;;;;5137407;27;20508;-74
2023/04/04 07:22:40;;;;;;;11.60;5.10;;;1.50;99.90;;;;;;5137327;27;20904;-70
2023/04/04 07:25:09;;;;;;;16.30;3.60;;;1.60;99.90;;;;;;5137684;27;20451;-70
2023/04/04 07:27:36;;;;;;;4.93;3.33;;;1.60;99.90;;;;;;5137348;27;20452;-70
2023/04/04 07:30:03;;;;;;;3.03;2.20;;;1.70;99.90;;;;;;5137987;27;20452;-71
2023/04/04 07:32:30;;;;;;;6.60;3.00;;;1.70;99.90;;;;;;5137911;27;20999;-71
2023/04/04 07:34:57;;;;;;;5.90;4.00;;;1.80;99.90;;;;;;5137784;27;20841;-70
2023/04/04 07:37:25;;;;;;;5.07;3.20;;;1.80;99.90;;;;;;5137255;27;20462;-70
2023/04/04 07:39:52;;;;;;;7.23;2.97;;;1.80;99.90;;;;;;5136836;27;20474;-70
2023/04/04 07:42:22;;;;;;;3.70;2.53;;;1.80;99.90;;;;;;5136888;27;20555;-71
2023/04/04 07:44:49;;;;;;;6.43;4.00;;;1.80;99.90;;;;;;5137536;27;20443;-72
2023/04/04 07:47:16;;;;;;;5.70;4.00;;;1.90;99.90;;;;;;5137210;27;20953;-71
2023/04/04 07:49:43;;;;;;;6.30;3.00;;;2.00;99.90;;;;;;5137055;27;20452;-70
2023/04/04 07:52:10;;;;;;;3.57;2.60;;;2.10;99.90;;;;;;5137593;27;20916;-71
2023/04/04 07:54:39;;;;;;;4.67;2.93;;;2.10;99.90;;;;;;5137818;27;20538;-70
2023/04/04 07:57:08;;;;;;;5.80;3.03;;;2.10;99.90;;;;;;5137929;27;20519;-70
2023/04/04 07:59:36;;;;;;;4.70;2.30;;;2.20;99.90;;;;;;5136317;28;20580;-71
2023/04/04 08:02:03;;;;;;;5.43;3.20;;;2.30;99.90;;;;;;5136709;28;20528;-71
2023/04/04 08:04:30;;;;;;;5.03;2.97;;;2.40;99.90;;;;;;5135637;28;20462;-70
2023/04/04 08:06:57;;;;;;;3.67;2.87;;;2.40;99.90;;;;;;5136002;28;20462;-70
2023/04/04 08:09:24;;;;;;;4.50;3.20;;;2.50;99.90;;;;;;5136249;28;20465;-70
2023/04/04 08:11:51;;;;;;;5.70;2.87;;;2.50;99.90;;;;;;5136924;28;20448;-71
2023/04/04 08:14:18;;;;;;;2.70;2.20;;;2.50;99.90;;;;;;5136318;28;20880;-71
2023/04/04 08:16:46;;;;;;;4.20;2.77;;;2.70;99.90;;;;;;5136094;28;20451;-71
2023/04/04 08:19:15;;;;;;;6.60;2.40;;;2.80;99.90;;;;;;5136135;28;20455;-70
2023/04/04 08:21:43;;;;;;;4.40;2.50;;;2.90;99.90;;;;;;5136256;28;20541;-70
2023/04/04 08:24:10;;;;;;;5.77;2.83;;;2.90;99.90;;;;;;5136064;28;20496;-70
2023/04/04 08:26:37;;;;;;;4.47;2.47;;;3.00;99.90;;;;;;5135907;28;20498;-70
2023/04/04 08:29:04;;;;;;;5.67;2.47;;;3.00;99.90;;;;;;5135582;28;20462;-71
2023/04/04 08:31:31;;;;;;;7.03;2.50;;;3.00;99.90;;;;;;5135894;28;20463;-69
2023/04/04 08:34:00;;;;;;;8.57;2.73;;;3.00;99.90;;;;;;5135627;28;20876;-70
2023/04/04 08:36:27;;;;;;;4.30;2.33;;;3.10;99.90;;;;;;5135375;28;20458;-70
2023/04/04 08:38:55;;;;;;;5.20;2.53;;;3.10;99.90;;;;;;5137215;27;20561;-70
2023/04/04 08:41:22;;;;;;;5.30;2.80;;;3.10;99.90;;;;;;5139599;27;20471;-70
2023/04/04 08:43:54;;;;;;;4.03;2.00;;;3.20;99.90;;;;;;5139474;27;20490;-69
2023/04/04 08:46:23;;;;;;;2.80;2.37;;;3.10;99.90;;;;;;5140259;27;20775;-70
2023/04/04 08:48:52;;;;;;;5.73;2.00;;;3.10;99.90;;;;;;5139796;27;20768;-70
2023/04/04 08:51:23;;;;;;;4.30;2.10;;;3.20;99.90;;;;;;5139776;27;20542;-70
2023/04/04 08:53:50;;;;;;;3.40;1.90;;;3.20;99.90;;;;;;5139702;27;20554;-70
2023/04/04 08:56:17;;;;;;;4.57;2.60;;;3.10;99.90;;;;;;5139861;27;20459;-70
2023/04/04 08:58:44;;;;;;;4.60;2.53;;;3.20;99.90;;;;;;5138949;27;20566;-70
2023/04/04 09:01:11;;;;;;;2.77;2.43;;;3.30;99.90;;;;;;5139813;27;20475;-70
2023/04/04 09:03:38;;;;;;;2.83;2.40;;;3.30;99.90;;;;;;5139658;27;20511;-70
2023/04/04 09:06:06;;;;;;;3.00;2.10;;;3.40;99.90;;;;;;5139657;27;20459;-71
2023/04/04 09:08:35;;;;;;;3.60;2.57;;;3.50;99.90;;;;;;5140020;27;20942;-70
2023/04/04 09:11:03;;;;;;;5.23;2.30;;;3.50;99.90;;;;;;5139339;27;20543;-70
2023/04/04 09:13:30;;;;;;;3.20;2.20;;;3.60;99.90;;;;;;5139371;27;20537;-70
2023/04/04 09:15:58;;;;;;;3.60;2.47;;;3.80;99.90;;;;;;5139263;27;20845;-70
2023/04/04 09:18:25;;;;;;;5.80;2.40;;;3.80;99.90;;;;;;5138939;27;20451;-70
2023/04/04 09:20:52;;;;;;;5.87;2.90;;;4.00;99.90;;;;;;5139091;27;20618;-70
2023/04/04 09:23:20;;;;;;;9.47;3.57;;;4.10;99.90;;;;;;5139121;27;20543;-70
2023/04/04 09:25:50;;;;;;;2.20;1.90;;;4.10;99.90;;;;;;5139272;27;20451;-70
2023/04/04 09:28:17;;;;;;;3.10;2.37;;;4.10;99.90;;;;;;5139180;27;20463;-70
2023/04/04 09:30:47;;;;;;;3.17;2.23;;;4.20;99.90;;;;;;5139660;27;20452;-71
2023/04/04 09:33:16;;;;;;;2.60;1.97;;;4.20;99.90;;;;;;5139242;27;20697;-70
2023/04/04 09:35:45;;;;;;;2.53;2.27;;;4.20;99.90;;;;;;5138783;27;20491;-71
2023/04/04 09:38:14;;;;;;;3.43;2.00;;;4.30;99.90;;;;;;5139162;27;20485;-70
2023/04/04 09:40:42;;;;;;;5.40;2.00;;;4.40;99.90;;;;;;5139311;27;20456;-71
2023/04/04 09:43:12;;;;;;;3.03;2.10;;;4.50;99.90;;;;;;5139119;27;20566;-71
2023/04/04 09:45:40;;;;;;;2.10;1.53;;;4.70;99.90;;;;;;5139122;27;20945;-71
2023/04/04 09:48:08;;;;;;;3.83;2.30;;;4.90;99.90;;;;;;5139352;27;20542;-70
2023/04/04 09:50:38;;;;;;;6.03;1.80;;;5.00;99.90;;;;;;5138965;27;20448;-71
2023/04/04 09:53:05;;;;;;;2.23;1.40;;;5.10;99.90;;;;;;5139917;27;20534;-70
2023/04/04 09:55:33;;;;;;;2.20;1.77;;;5.00;99.90;;;;;;5138799;27;20935;-71
2023/04/04 09:58:12;;;;;;;4.03;1.77;;;4.90;99.90;;;;;;5138530;27;20483;-71
2023/04/04 10:00:43;;;;;;;1.97;1.77;;;4.90;99.90;;;;;;5138714;27;20930;-71
2023/04/04 10:03:13;;;;;;;5.27;1.60;;;5.00;99.90;;;;;;5138408;27;20468;-71
2023/04/04 10:05:40;;;;;;;2.13;1.40;;;5.20;99.90;;;;;;5138484;27;20451;-71
2023/04/04 10:08:17;;;;;;;3.00;1.77;;;5.40;99.90;;;;;;5138275;27;20526;-71
2023/04/04 10:10:51;;;;;;;3.00;1.90;;;5.40;99.90;;;;;;5138627;27;20522;-70
2023/04/04 10:13:27;;;;;;;2.27;1.40;;;5.50;99.90;;;;;;5138083;27;20473;-70
2023/04/04 10:15:55;;;;;;;1.83;1.50;;;5.60;99.90;;;;;;5138029;27;20466;-71
2023/04/04 10:18:24;;;;;;;2.37;2.00;;;5.60;99.90;;;;;;5137794;27;20495;-70
2023/04/04 10:20:51;;;;;;;2.93;1.30;;;5.70;99.90;;;;;;5137736;27;20466;-71
2023/04/04 10:23:19;;;;;;;4.33;1.47;;;5.60;99.90;;;;;;5137827;27;20479;-71
2023/04/04 10:25:46;;;;;;;4.30;1.53;;;5.50;99.40;;;;;;5137819;27;20546;-71
2023/04/04 10:28:13;;;;;;;3.40;1.40;;;5.40;98.00;;;;;;5136875;27;20464;-71
2023/04/04 10:30:45;;;;;;;1.27;1.10;;;5.40;96.60;;;;;;5137727;27;20466;-71
2023/04/04 10:33:19;;;;;;;4.97;1.47;;;5.50;97.40;;;;;;5137837;27;20436;-71
2023/04/04 10:35:51;;;;;;;3.67;1.60;;;5.70;94.70;;;;;;5138470;27;20450;-71
2023/04/04 10:38:21;;;;;;;1.40;1.27;;;5.80;95.90;;;;;;5138843;27;20447;-71
2023/04/04 10:40:51;;;;;;;4.23;1.80;;;6.00;93.30;;;;;;5138582;27;20535;-71
2023/04/04 10:43:25;;;;;;;3.33;1.80;;;6.20;93.20;;;;;;5138698;27;20622;-71
2023/04/04 10:45:54;;;;;;;1.63;1.20;;;6.40;91.80;;;;;;5138077;27;20436;-71
2023/04/04 10:48:23;;;;;;;2.87;1.40;;;6.50;84.10;;;;;;5138058;27;20534;-71
2023/04/04 10:50:50;;;;;;;2.70;1.10;;;6.60;84.30;;;;;;5137788;27;20444;-71
2023/04/04 10:53:17;;;;;;;2.63;1.30;;;6.50;78.80;;;;;;5137568;27;20546;-70
2023/04/04 10:55:45;;;;;;;4.27;2.37;;;6.40;75.70;;;;;;5137323;27;20451;-70
2023/04/04 10:58:12;;;;;;;3.30;1.40;;;6.30;74.60;;;;;;5136716;27;20540;-71
2023/04/04 11:00:51;;;;;;;2.50;1.43;;;6.30;72.90;;;;;;5136736;27;20531;-70
2023/04/04 11:03:19;;;;;;;3.23;1.40;;;6.40;70.90;;;;;;5136952;27;20519;-70
2023/04/04 11:05:47;;;;;;;5.23;1.50;;;6.50;69.30;;;;;;5137729;27;20458;-70
2023/04/04 11:08:18;;;;;;;4.03;1.20;;;6.70;66.80;;;;;;5137295;27;20455;-70
2023/04/04 11:10:47;;;;;;;2.80;1.63;;;6.80;72.20;;;;;;5137328;27;20436;-71
2023/04/04 11:13:17;;;;;;;6.50;1.40;;;7.10;69.50;;;;;;5137143;27;20478;-71
2023/04/04 11:15:57;;;;;;;1.87;1.50;;;7.30;70.70;;;;;;5136395;27;20474;-70
2023/04/04 11:18:46;;;;;;;3.43;1.73;;;7.20;61.40;;;;;;5136634;27;20440;-70
2023/04/04 11:21:15;;;;;;;4.07;2.10;;;6.90;62.00;;;;;;5135743;27;20558;-71
2023/04/04 11:24:12;;;;;;;3.20;1.50;;;6.80;65.30;;;;;;5136562;27;20536;-71
2023/04/04 11:26:44;;;;;;;2.80;1.80;;;6.80;63.80;;;;;;5136568;27;20526;-71
2023/04/04 11:29:21;;;;;;;3.97;1.73;;;6.90;65.70;;;;;;5136335;27;20489;-70
2023/04/04 11:31:50;;;;;;;2.43;1.33;;;7.60;62.20;;;;;;5136767;27;20439;-70
2023/04/04 11:34:30;;;;;;;3.03;1.43;;;8.30;58.00;;;;;;5136697;27;20538;-70
2023/04/04 11:37:00;;;;;;;1.90;1.10;;;8.90;57.00;;;;;;5137665;27;20819;-70
2023/04/04 11:39:29;;;;;;;3.10;1.80;;;9.40;54.00;;;;;;5137309;27;20774;-70
2023/04/04 11:42:03;;;;;;;2.17;1.60;;;9.00;53.20;;;;;;5136291;27;20451;-70
2023/04/04 11:44:32;;;;;;;2.27;1.40;;;8.80;55.20;;;;;;5136994;27;20440;-70
2023/04/04 11:47:10;;;;;;;2.57;1.60;;;8.20;51.70;;;;;;5135920;27;20455;-69
2023/04/04 11:49:40;;;;;;;1.77;1.30;;;8.00;52.60;;;;;;5136570;27;20464;-70
2023/04/04 11:52:08;;;;;;;2.03;1.17;;;8.10;54.50;;;;;;5136345;27;20475;-71
2023/04/04 11:54:36;;;;;;;2.13;1.20;;;8.80;50.60;;;;;;5135805;27;20483;-70
2023/04/04 11:57:03;;;;;;;1.80;1.20;;;9.70;49.70;;;;;;5136635;27;20451;-70
2023/04/04 11:59:30;;;;;;;4.30;1.63;;;10.30;47.80;;;;;;5136421;27;20503;-71
2023/04/04 12:01:57;;;;;;;2.47;1.40;;;10.60;46.40;;;;;;5136730;28;20834;-71
2023/04/04 12:04:26;;;;;;;2.57;1.30;;;10.60;45.30;;;;;;5137301;28;20520;-71
2023/04/04 12:06:56;;;;;;;4.03;2.30;;;10.30;44.10;;;;;;5136495;28;20825;-71
2023/04/04 12:09:25;;;;;;;3.27;1.33;;;9.90;42.80;;;;;;5136374;28;20571;-71
2023/04/04 12:11:52;;;;;;;2.67;1.60;;;9.50;40.50;;;;;;5136492;28;20542;-71
2023/04/04 12:14:20;;;;;;;2.13;1.00;;;9.90;42.30;;;;;;5140462;27;20546;-71
2023/04/04 12:16:49;;;;;;;1.87;1.20;;;9.90;41.70;;;;;;5140849;27;20830;-71
2023/04/04 12:19:17;;;;;;;3.50;1.40;;;10.10;40.50;;;;;;5141792;27;20483;-70
2023/04/04 12:21:44;;;;;;;4.40;1.83;;;11.00;40.30;;;;;;5141896;27;20547;-70
2023/04/04 12:24:12;;;;;;;5.23;3.03;;;11.70;38.00;;;;;;5142185;27;20496;-69
2023/04/04 12:26:41;;;;;;;3.73;1.43;;;11.70;35.30;;;;;;5141814;27;20457;-70
2023/04/04 12:29:09;;;;;;;4.93;1.67;;;11.30;34.40;;;;;;5141661;27;20455;-70
2023/04/04 12:31:38;;;;;;;2.40;1.40;;;10.50;36.50;;;;;;5140658;27;20451;-70
2023/04/04 12:34:05;;;;;;;3.60;1.23;;;9.80;39.10;;;;;;5140735;27;20880;-70
2023/04/04 12:36:32;;;;;;;2.27;1.50;;;9.40;40.60;;;;;;5142097;27;20490;-71
2023/04/04 12:39:01;;;;;;;2.50;1.40;;;9.20;41.70;;;;;;5141818;27;20462;-70
2023/04/04 12:41:29;;;;;;;1.80;1.27;;;9.60;41.30;;;;;;5143026;27;20534;-70
2023/04/04 12:44:03;;;;;;;2.50;1.30;;;10.30;41.30;;;;;;5143106;27;20515;-70
2023/04/04 12:46:37;;;;;;;1.20;1.10;;;11.00;38.20;;;;;;5143225;27;20461;-70
2023/04/04 12:49:06;;;;;;;5.43;1.53;;;11.80;37.40;;;;;;5142633;27;20435;-70
2023/04/04 12:51:35;;;;;;;3.07;1.70;;;12.60;34.60;;;;;;5141957;27;20482;-70
2023/04/04 12:54:04;;;;;;;2.73;1.40;;;13.10;33.40;;;;;;5142140;27;20507;-70
2023/04/04 12:56:34;;;;;;;1.63;1.23;;;12.80;31.80;;;;;;5141158;27;20559;-70
2023/04/04 12:59:03;;;;;;;6.13;2.23;;;12.30;32.50;;;;;;5141127;27;20493;-70